^^

METAR Αεροδρομίων

σε ακτίνα 500 χλμ


 Τι είναι το METAR ??? 

Πρώτο είναι το πλησιέστερο αεροδρόμιο (Θεσ/νίκη LGTS 6χλμ) και
τέλος το πιο απομακρυσμένο (Κων/πολη LTBA 494χλμ).
Επίσης μερικές αναφορές, παρουσιάζουν λιγότερα στοιχεία γιατί
οι αρχικές είναι ελλιπείς ή έχουν λάθος μορφοποίηση.
Πηγαίνετε στις Αναφορές METAR από Μετεωρολογικούς Σταθμούς )  
Αλφαβητική Λίστα Γρήγορης Μετάβασης στα 48 Αεροδρόμια
Αλβανία: Τίρανα  Βουλγαρία: Γκόρνα Οριαχόβιτσα  Μπουργκάς  Σόφια  Φιλιππούπολη  Ελλάδα: Αθήνα  Αλεξανδρούπολη  Ανδραβίδα  Βόλος  Ελευσίνα  Ζάκυνθος  Θεσσαλονίκη  Ιωάννινα  Καβάλα  Καλαμάτα  Κέρκυρα  Κεφαλονιά  Κοζάνη  Κύθηρα
Λέσβος  Λήμνος  Μύκονος  Νάξος  Πάρος  Πάτρα  Πρέβεζα  Σάμος  Σκιάθος  Σκύρος  Σύρος  Χίος  Ιταλία: Γκαλατίνα  Μπρίντιζι  Σάντα Μαρία ντι Λέουκα  Ταράντο  Κόσοβο: Πρίστινα  Κροατία: Ντουμπρόβνικ  Μαυροβούνιο: Ποντγκόριτσα  Τιβάτ
Δ.Β.Μ: Οχρίδα  Σκόπια  Ρουμανία: Κραϊόβα  Σερβία: Κράλιεβο  Νις  Ούζιτσε  Τουρκία: Κωνσταντινούπολη  Σμύρνη Τσορλού 
(ΒΠΑ)Βάση Πολεμικής Αεροπορίας
LGTS - Αεροδρόμιο "Μακεδονία"
Θεσσαλονίκη - Κεντρική Μακεδονία - Ελλάδα
Γ.Πλάτ: 40.5167 - Γ.Μήκ: 22.9667 - Υψόμ: 7μ
Απόσταση από το Vouhead Weather: (Ν) 6χλμ
Ενημερώθηκε: 12/07/2020 15:20
Διάσπαρτα νέφη
Διάσπαρτα νέφη
 Άνεμος από ΔΒΔ
Άνεμος: ΔΒΔ 13 km/h
Θερμοκρασία: 32°C
Δείκτης Δυσφορίας: 33°C
Σημ. Δρόσου: 18°C
Υγρασία: 43%
Βαρόμετρο: 1010 hPa
Σύννεφα: Διάσπαρτα νέφη
Ορατότητα: 10 km
Ανάλυση νέφωσης: Διάσπαρτα νέφη 762 m
2020/07/12 12:20 LGTS 121220Z 29007KT 9999 FEW025 32/18 Q1010 NOSIG
LGKZ - Αεροδρόμιο "Φίλιππος"
Κοζάνη - Δυτική Μακεδονία - Ελλάδα
Γ.Πλάτ: 40.2833 - Γ.Μήκ: 21.8333 - Υψόμ: 628μ
Απόσταση από το Vouhead Weather: (ΔΝΔ) 102χλμ
Ενημερώθηκε: 12/07/2020 15:20

 Άνεμος από ΒΒΑ
Άνεμος: ΒΒΑ 7 km/h, Ριπή: 26 km/h
Θερμοκρασία: 32°C
Σημ. Δρόσου: 12°C
Υγρασία: 29%
Βαρόμετρο: 1015 hPa
2020/07/12 12:20 LGKZ 121220Z AUTO 02004G14KT 320V190 //// // ////// 32/12 Q1015 RE//
 
LGKV - Αεροδρόμιο "Μέγας Αλέξανδρος"
Καβάλα(Χρυσούπολη) - Α. Μακεδονία & Θράκη - Ελλάδα
Γ.Πλάτ: 40.9167 - Γ.Μήκ: 24.6167 - Υψόμ: 5μ
Απόσταση από το Vouhead Weather: (ΑΒΑ) 144χλμ
Ενημερώθηκε: 12/07/2020 15:20
Διάσπαρτα νέφη
Διάσπαρτα νέφη
 Άνεμος από ΝΔ
Άνεμος: ΝΔ 13 km/h
Θερμοκρασία: 30°C
Δείκτης Δυσφορίας: 31°C
Σημ. Δρόσου: 17°C
Υγρασία: 46%
Βαρόμετρο: 1011 hPa
Σύννεφα: Διάσπαρτα νέφη
Ορατότητα: 10 km
Ανάλυση νέφωσης: Διάσπαρτα νέφη 610 m
2020/07/12 12:20 LGKV 121220Z 23007KT 9999 FEW020 30/17 Q1011
LGBL - Αεροδρόμιο στη Νέα Αγχίαλο
Βόλος(Αλμυρός) - Θεσσαλία - Ελλάδα
Γ.Πλάτ: 39.2167 - Γ.Μήκ: 22.8000 - Υψόμ: 26μ
Απόσταση από το Vouhead Weather: (Ν) 151χλμ
Ενημερώθηκε: 12/07/2020 15:20
Αίθριος
Αίθριος
 Άνεμος από ΑΝΑ
Άνεμος: ΑΝΑ 24 km/h
Θερμοκρασία: 32°C
Σημ. Δρόσου: 16°C
Υγρασία: 38%
Βαρόμετρο: 1011 hPa
Περίληψη: Αίθριος
Ορατότητα: Μεγαλύτερη από 10 km
2020/07/12 12:20 LGBL 121220Z 11013KT CAVOK 32/16 Q1011
 
LGSK - Αεροδρόμ. "Αλέξανδρος Παπαδιαμάντης"
Σκιάθος - Θεσσαλία(Σποράδες) - Ελλάδα
Γ.Πλάτ: 39.1833 - Γ.Μήκ: 23.5000 - Υψόμ: 15μ
Απόσταση από το Vouhead Weather: (ΝΝΑ) 160χλμ
Ενημερώθηκε: 12/07/2020 14:50
Αίθριος
Αίθριος
 Άνεμος από Β
Άνεμος: Β 9 km/h
Θερμοκρασία: 28°C
Δείκτης Δυσφορίας: 28°C
Σημ. Δρόσου: 17°C
Υγρασία: 51%
Βαρόμετρο: 1012 hPa
Περίληψη: Αίθριος
Ορατότητα: Μεγαλύτερη από 10 km
2020/07/12 11:50 LGSK 121150Z 01005KT CAVOK 28/17 Q1012
LWSK - Αεροδρόμιο "Σκόπγιε Ιντερνάσιοναλ Έιρπορτ"
Σκόπια(Πέτροβακ) - Περιφέρεια Σκοπίων - Δ.Β.Μ
Γ.Πλάτ: 41.9667 - Γ.Μήκ: 21.6333 - Υψόμ: 239μ
Απόσταση από το Vouhead Weather: (ΒΔ) 192χλμ
Ενημερώθηκε: 12/07/2020 15:00
Διάσπαρτα νέφη
Διάσπαρτα νέφη
 Άνεμος από Β
Άνεμος: Β 31 km/h
Θερμοκρασία: 29°C
Δείκτης Δυσφορίας: 28°C
Σημ. Δρόσου: 14°C
Υγρασία: 40%
Βαρόμετρο: 1016 hPa
Σύννεφα: Διάσπαρτα νέφη
Ορατότητα: 10 km
Ανάλυση νέφωσης: Διάσπαρτα νέφη 1524 m
2020/07/12 12:00 LWSK 121200Z 36017KT 9999 FEW050 29/14 Q1016 NOSIG
 
LWOH - Αεροδρόμιο "Σεντ Πολ Δε Απόστλ"
Οχρίδα - Νοτιοδυτική Περιφέρεια - Δ.Β.Μ
Γ.Πλάτ: 41.9667 - Γ.Μήκ: 21.6333 - Υψόμ: 239μ
Απόσταση από το Vouhead Weather: (ΔΒΔ) 193χλμ
Ενημερώθηκε: 12/07/2020 15:30
Nearby thunderstorm, Μερικώς νεφελώδης
Nearby thunderstorm, Μερικώς νεφελώδης
 Άνεμος από Μεταβλητός
Άνεμος: Μεταβλητός 6 km/h
Θερμοκρασία: 26°C
Σημ. Δρόσου: 17°C
Υγρασία: 58%
Βαρόμετρο: 1016 hPa
Περίληψη: Nearby Thunderstorm
Σύννεφα: Μερικώς νεφελώδης
Ορατότητα: 10 km
Ανάλυση νέφωσης: Διάσπαρτα νέφη 1006 m
Μερικώς νεφελώδης 1524 m
2020/07/12 12:30 LWOH 121230Z VRB03KT 9999 VCTS FEW033CB SCT050 26/17 Q1016
LGLM - Αεροδρόμιο "Ήφαιστος"
Λήμνος - Βόρειο Αιγαίο - Ελλάδα
Γ.Πλάτ: 39.9167 - Γ.Μήκ: 25.2333 - Υψόμ: 5μ
Απόσταση από το Vouhead Weather: (ΑΝΑ) 205χλμ
Ενημερώθηκε: 12/07/2020 15:20
Αίθριος
Αίθριος
 Άνεμος από ΒΒΑ
Άνεμος: ΒΒΑ 19 km/h
Θερμοκρασία: 29°C
Δείκτης Δυσφορίας: 28°C
Σημ. Δρόσου: 14°C
Υγρασία: 40%
Βαρόμετρο: 1011 hPa
Περίληψη: Αίθριος
Ορατότητα: Μεγαλύτερη από 10 km
2020/07/12 12:20 LGLM 121220Z 03010KT CAVOK 29/14 Q1011
 
LGIO - Αεροδρόμιο "Βασιλεύς Πύρρος"
Ιωάννινα - Ήπειρος - Ελλάδα
Γ.Πλάτ: 39.7000 - Γ.Μήκ: 20.8167 - Υψόμ: 476μ
Απόσταση από το Vouhead Weather: (ΔΝΔ) 207χλμ
Ενημερώθηκε: 12/07/2020 15:20
Διάσπαρτα νέφη
Διάσπαρτα νέφη
 Άνεμος από ΒΒΔ
Άνεμος: ΒΒΔ 13 km/h
Θερμοκρασία: 32°C
Δείκτης Δυσφορίας: 33°C
Σημ. Δρόσου: 17°C
Υγρασία: 41%
Βαρόμετρο: 1013 hPa
Σύννεφα: Διάσπαρτα νέφη
Ορατότητα: 10 km
Ανάλυση νέφωσης: Διάσπαρτα νέφη 1219 m
2020/07/12 12:20 LGIO 121220Z 33007KT 9999 FEW040 32/17 Q1013
LGSY - Αεροδρόμιο στη Σκύρο
Σκύρος - Θεσσαλία(Σποράδες) - Ελλάδα
Γ.Πλάτ: 38.9667 - Γ.Μήκ: 24.4833 - Υψόμ: 15μ
Απόσταση από το Vouhead Weather: (ΝΑ) 220χλμ
Ενημερώθηκε: 12/07/2020 14:50
Αίθριος
Αίθριος
 Άνεμος από ΒΔ
Άνεμος: ΒΔ 24 km/h
Θερμοκρασία: 26°C
Σημ. Δρόσου: 19°C
Υγρασία: 65%
Βαρόμετρο: 1012 hPa
Περίληψη: Αίθριος
Ορατότητα: Μεγαλύτερη από 10 km
2020/07/12 11:50 LGSY 121150Z 32013KT CAVOK 26/19 Q1012 BLU
 
LBPD - Αεροδρόμιο στη Φιλιππούπολη
Φιλιππούπολη(Κρούμοβο) - Πλόβντιβ - Βουλγαρία
Γ.Πλάτ: 42.1333 - Γ.Μήκ: 24.8000 - Υψόμ: 185μ
Απόσταση από το Vouhead Weather: (ΒΑ) 231χλμ
Ενημερώθηκε: 12/07/2020 15:00
Διάσπαρτα νέφη
Διάσπαρτα νέφη
 Άνεμος από Μεταβλητός
Άνεμος: Μεταβλητός 7 km/h
Θερμοκρασία: 31°C
Σημ. Δρόσου: 13°C
Υγρασία: 33%
Βαρόμετρο: 1013 hPa
Σύννεφα: Διάσπαρτα νέφη
Ορατότητα: 10 km
Ανάλυση νέφωσης: Διάσπαρτα νέφη 2256 m
2020/07/12 12:00 LBPD 121200Z AUTO VRB04KT 9999 FEW074 31/13 Q1013 NOSIG
LBSF - Αεροδρόμιο στη Σόφια
Σόφια(Βράτσντεμπνα) - Μητρ. περ. Σόφιας - Βουλγαρία
Γ.Πλάτ: 42.6500 - Γ.Μήκ: 23.3833 - Υψόμ: 595μ
Απόσταση από το Vouhead Weather: (Β) 234χλμ
Ενημερώθηκε: 12/07/2020 15:00
Μερικώς νεφελώδης
Μερικώς νεφελώδης
 Άνεμος από Δ
Άνεμος: Δ 24 km/h
Θερμοκρασία: 27°C
Δείκτης Δυσφορίας: 27°C
Σημ. Δρόσου: 15°C
Υγρασία: 48%
Βαρόμετρο: 1016 hPa
Σύννεφα: Μερικώς νεφελώδης
Ορατότητα: 10 km
Ανάλυση νέφωσης: Διάσπαρτα νέφη 1524 m
Μερικώς νεφελώδης 1890 m
2020/07/12 12:00 LBSF 121200Z 28013KT 250V310 9999 FEW050 SCT062 27/15 Q1016 NOSIG
 
LGAL - Αεροδρόμιο "Δημόκριτος"
Αλεξανδρούπολη - Α. Μακεδονία & Θράκη - Ελλάδα
Γ.Πλάτ: 40.8500 - Γ.Μήκ: 25.9167 - Υψόμ: 3μ
Απόσταση από το Vouhead Weather: (Α) 250χλμ
Ενημερώθηκε: 12/07/2020 15:20
Αίθριος
Αίθριος
 Άνεμος από Β
Άνεμος: Β 24 km/h
Θερμοκρασία: 33°C
Σημ. Δρόσου: 12°C
Υγρασία: 28%
Βαρόμετρο: 1011 hPa
Περίληψη: Αίθριος
Ορατότητα: Μεγαλύτερη από 10 km
2020/07/12 12:20 LGAL 121220Z 01013KT CAVOK 33/12 Q1011
BKPR - Αεροδρόμιο "Αντεμ Γιασάρι"
Πρίστινα - Πρίστινα - Κόσοβο
(Ελληνικό Υπουργείο Εξωτερικών, σχετικά με το Κόσοβο)
Γ.Πλάτ: 42.5833 - Γ.Μήκ: 21.0333 - Υψόμ: 576μ
Απόσταση από το Vouhead Weather: (ΒΔ) 276χλμ
Ενημερώθηκε: 12/07/2020 15:30
Κυρίως νεφελώδης
Κυρίως νεφελώδης
 Άνεμος από Β
Άνεμος: Β 24 km/h
Θερμοκρασία: 21°C
Σημ. Δρόσου: 13°C
Υγρασία: 60%
Βαρόμετρο: 1020 hPa
Σύννεφα: Κυρίως νεφελώδης
Ορατότητα: 10 km
Ανάλυση νέφωσης: Διάσπαρτα νέφη 914 m
Κυρίως νεφελώδης 1524 m
2020/07/12 12:30 BKPR 121230Z 01013KT 9999 FEW030 BKN050 21/13 Q1020 NOSIG
 
LGKR - Αεροδρόμιο "Ιωάννης Καποδίστριας"
Κέρκυρα - Ιόνιοι Νήσοι - Ελλάδα
Γ.Πλάτ: 39.6000 - Γ.Μήκ: 19.9167 - Υψόμ: 2μ
Απόσταση από το Vouhead Weather: (ΔΝΔ) 281χλμ
Ενημερώθηκε: 12/07/2020 15:20
Αίθριος
Αίθριος
 Άνεμος από Μεταβλητός
Άνεμος: Μεταβλητός 0 km/h
Θερμοκρασία: 32°C
Δείκτης Δυσφορίας: 34°C
Σημ. Δρόσου: 20°C
Υγρασία: 49%
Βαρόμετρο: 1011 hPa
Περίληψη: Αίθριος
Ορατότητα: Μεγαλύτερη από 10 km
2020/07/12 12:20 LGKR 121220Z /////KT CAVOK 32/20 Q1011 NOSIG
LATI - Αεροδρόμιο "Μάδερ Τερέζα"
Τίρανα(Ρίνα) - Τίρανα - Αλβανία
Γ.Πλάτ: 41.3167 - Γ.Μήκ: 19.7667 - Υψόμ: 90μ
Απόσταση από το Vouhead Weather: (ΔΒΔ) 282χλμ
Ενημερώθηκε: 12/07/2020 15:20
Αίθριος
Αίθριος
 Άνεμος από Β
Άνεμος: Β 20 km/h
Θερμοκρασία: 32°C
Δείκτης Δυσφορίας: 36°C
Σημ. Δρόσου: 22°C
Υγρασία: 55%
Βαρόμετρο: 1013 hPa
Περίληψη: Αίθριος
Ορατότητα: Μεγαλύτερη από 10 km
2020/07/12 12:20 LATI 121220Z 35011KT CAVOK 32/22 Q1013 NOSIG
 
LGEL - Αεροδρόμιο στην Ελευσίνα(ΒΠΑ)
Ελευσίνα - Αττική - Ελλάδα
Γ.Πλάτ: 38.0667 - Γ.Μήκ: 23.5500 - Υψόμ: 31μ
Απόσταση από το Vouhead Weather: (Ν) 282χλμ
Ενημερώθηκε: 12/07/2020 15:20
Αίθριος
Αίθριος
 Άνεμος από Β
Άνεμος: Β 19 km/h
Θερμοκρασία: 34°C
Σημ. Δρόσου: 13°C
Υγρασία: 28%
Βαρόμετρο: 1009 hPa
Περίληψη: Αίθριος
Ορατότητα: Μεγαλύτερη από 10 km
2020/07/12 12:20 LGEL 121220Z 36010KT CAVOK 34/13 Q1009
LGPZ - Αεροδρόμιο στη Πρέβεζα
Πρέβεζα(Ακτιον) - Ήπειρος - Ελλάδα
Γ.Πλάτ: 38.6167 - Γ.Μήκ: 20.7667 - Υψόμ: 4μ
Απόσταση από το Vouhead Weather: (ΝΔ) 288χλμ
Ενημερώθηκε: 12/07/2020 15:20
Αίθριος
Αίθριος
 Άνεμος από ΔΝΔ
Άνεμος: ΔΝΔ 17 km/h
Θερμοκρασία: 30°C
Δείκτης Δυσφορίας: 34°C
Σημ. Δρόσου: 23°C
Υγρασία: 66%
Βαρόμετρο: 1011 hPa
Περίληψη: Αίθριος
Ορατότητα: Μεγαλύτερη από 10 km
2020/07/12 12:20 LGPZ 121220Z 25009KT CAVOK 30/23 Q1011
 
LGRX - Αεροδρόμιο στη Πάτρα(ΒΠΑ)
Πάτρα(Αραξος) - Δυτική Ελλάδα - Ελλάδα
Γ.Πλάτ: 38.1667 - Γ.Μήκ: 21.4167 - Υψόμ: 15μ
Απόσταση από το Vouhead Weather: (ΝΝΔ) 299χλμ
Ενημερώθηκε: 12/07/2020 15:20
Αίθριος
Αίθριος
 Άνεμος από Δ
Άνεμος: Δ 13 km/h
Θερμοκρασία: 32°C
Δείκτης Δυσφορίας: 33°C
Σημ. Δρόσου: 17°C
Υγρασία: 41%
Βαρόμετρο: 1011 hPa
Περίληψη: Αίθριος
Ορατότητα: Μεγαλύτερη από 10 km
2020/07/12 12:20 LGRX 121220Z 27007KT CAVOK 32/17 Q1011
LGAV - Αεροδρόμιο "Ελευθέριος Βεμιζέλος"
Αθήνα(Σπάτα) - Αττική - Ελλάδα
Γ.Πλάτ: 37.9333 - Γ.Μήκ: 23.9500 - Υψόμ: 94μ
Απόσταση από το Vouhead Weather: (ΝΝΑ) 305χλμ
Ενημερώθηκε: 12/07/2020 15:20
Αίθριος
Αίθριος
 Άνεμος από ΒΒΑ
Άνεμος: ΒΒΑ 31 km/h
Θερμοκρασία: 31°C
Σημ. Δρόσου: 11°C
Υγρασία: 29%
Βαρόμετρο: 1011 hPa
Περίληψη: Αίθριος
Ορατότητα: Μεγαλύτερη από 10 km
2020/07/12 12:20 LGAV 121220Z 03017KT CAVOK 31/11 Q1011 NOSIG
 
LYNI - Αεροδρόμιο "Κονσταντίν Δε Γκρέιτ"
Νις - Νότια και Ανατολική Σερβία - Σερβία
Γ.Πλάτ: 43.3167 - Γ.Μήκ: 21.8833 - Υψόμ: 202μ
Απόσταση από το Vouhead Weather: (ΒΒΔ) 319χλμ
Ενημερώθηκε: 12/07/2020 15:00
Κυρίως νεφελώδης
Κυρίως νεφελώδης
 Άνεμος από ΒΔ
Άνεμος: ΒΔ 22 km/h
Θερμοκρασία: 18°C
Σημ. Δρόσου: 13°C
Υγρασία: 73%
Βαρόμετρο: 1021 hPa
Σύννεφα: Κυρίως νεφελώδης
Ορατότητα: 10 km
Ανάλυση νέφωσης: Μερικώς νεφελώδης 518 m
Κυρίως νεφελώδης 701 m
2020/07/12 12:00 LYNI 121200Z 32012KT 280V350 9999 SCT017 BKN023 18/13 Q1021 NOSIG
LGAD - Αεροδρόμιο στην Ανδραβίδα(ΒΠΑ)
Ανδραβίδα - Δυτική Ελλάδα - Ελλάδα
Γ.Πλάτ: 37.9167 - Γ.Μήκ: 21.2667 - Υψόμ: 12μ
Απόσταση από το Vouhead Weather: (ΝΝΔ) 329χλμ
Ενημερώθηκε: 12/07/2020 15:20
Διάσπαρτα νέφη
Διάσπαρτα νέφη
 Άνεμος από ΒΔ
Άνεμος: ΒΔ 22 km/h
Θερμοκρασία: 31°C
Δείκτης Δυσφορίας: 33°C
Σημ. Δρόσου: 19°C
Υγρασία: 49%
Βαρόμετρο: 1011 hPa
Σύννεφα: Διάσπαρτα νέφη
Ορατότητα: 10 km
Ανάλυση νέφωσης: Διάσπαρτα νέφη 610 m
2020/07/12 12:20 LGAD 121220Z 31012KT 9999 FEW020 31/19 Q1011
 
LGKF - Αεροδρόμιο στην Κεφαλονιά
Κεφαλονιά - Ιόνιοι Νήσοι - Ελλάδα
Γ.Πλάτ: 38.1167 - Γ.Μήκ: 20.5000 - Υψόμ: 18μ
Απόσταση από το Vouhead Weather: (ΝΔ) 346χλμ
Ενημερώθηκε: 12/07/2020 14:50
Διάσπαρτα νέφη
Διάσπαρτα νέφη
 Άνεμος από Δ
Άνεμος: Δ 17 km/h
Θερμοκρασία: 30°C
Δείκτης Δυσφορίας: 33°C
Σημ. Δρόσου: 21°C
Υγρασία: 59%
Βαρόμετρο: 1012 hPa
Σύννεφα: Διάσπαρτα νέφη
Ορατότητα: 10 km
Ανάλυση νέφωσης: Διάσπαρτα νέφη 549 m
2020/07/12 11:50 LGKF 121150Z 27009KT 9999 FEW018 30/21 Q1012
LGMT - Αεροδρόμιο "Οδυσσέας Ελύτης"
Λέσβος - Βόρειο Αιγαίο - Ελλάδα
Γ.Πλάτ: 39.0500 - Γ.Μήκ: 26.6000 - Υψόμ: 17μ
Απόσταση από το Vouhead Weather: (ΑΝΑ) 353χλμ
Ενημερώθηκε: 12/07/2020 15:20
Αίθριος
Αίθριος
 Άνεμος από ΒΔ
Άνεμος: ΒΔ 22 km/h
Θερμοκρασία: 30°C
Δείκτης Δυσφορίας: 31°C
Σημ. Δρόσου: 19°C
Υγρασία: 52%
Βαρόμετρο: 1008 hPa
Περίληψη: Αίθριος
Ορατότητα: Μεγαλύτερη από 10 km
2020/07/12 12:20 LGMT 121220Z 31012KT CAVOK 30/19 Q1008
 
LGZA - Αεροδρόμιο "Διονύσιος Σολωμός"
Ζάκυνθος - Ιόνιοι Νήσοι - Ελλάδα
Γ.Πλάτ: 37.7500 - Γ.Μήκ: 20.8667 - Υψόμ: 3μ
Απόσταση από το Vouhead Weather: (ΝΝΔ) 362χλμ
Ενημερώθηκε: 12/07/2020 14:50
Αίθριος
Αίθριος
 Άνεμος από Β
Άνεμος: Β 11 km/h
Θερμοκρασία: 32°C
Δείκτης Δυσφορίας: 33°C
Σημ. Δρόσου: 18°C
Υγρασία: 43%
Βαρόμετρο: 1011 hPa
Περίληψη: Αίθριος
Ορατότητα: Μεγαλύτερη από 10 km
2020/07/12 11:50 LGZA 121150Z 36006KT CAVOK 32/18 Q1011
LBGO - Αεροδρόμιο στη Γκόρνα Οριαχόβιτσα
Γκόρνα Οριαχόβιτσα - Βέλικο Τάρνοβο - Βουλγαρία
Γ.Πλάτ: 43.1500 - Γ.Μήκ: 25.7167 - Υψόμ: 86μ
Απόσταση από το Vouhead Weather: (ΒΑ) 366χλμ
Ενημερώθηκε: 12/07/2020 15:00
Αίθριος
Αίθριος
 Άνεμος από Β
Άνεμος: Β 26 km/h
Θερμοκρασία: 30°C
Σημ. Δρόσου: 13°C
Υγρασία: 35%
Βαρόμετρο: 1013 hPa
Σύννεφα: Αίθριος
Ορατότητα: 10 km
2020/07/12 12:00 LBGO 121200Z AUTO 36014KT 9999 NCD 30/13 Q1013 NOSIG
 
LGHI - Αεροδρόμιο "Όμηρος"
Χίος - Ιόνιοι Νήσοι - Ελλάδα
Γ.Πλάτ: 38.3167 - Γ.Μήκ: 26.1167 - Υψόμ: 4μ
Απόσταση από το Vouhead Weather: (ΝΑ) 368χλμ
Ενημερώθηκε: 12/07/2020 14:50
Αίθριος
Αίθριος
 Άνεμος από ΒΒΑ
Άνεμος: ΒΒΑ 20 km/h
Θερμοκρασία: 29°C
Δείκτης Δυσφορίας: 29°C
Σημ. Δρόσου: 17°C
Υγρασία: 48%
Βαρόμετρο: 1007 hPa
Περίληψη: Αίθριος
Ορατότητα: Μεγαλύτερη από 10 km
2020/07/12 11:50 LGHI 121150Z 02011KT CAVOK 29/17 Q1007
LYPG - Αεροδρόμιο στη Ποντγκόριτσα
Ποντγκόριτσα - Γκολούμποβτσι - Μαυροβούνιο
Γ.Πλάτ: 42.3667 - Γ.Μήκ: 19.2500 - Υψόμ: 43μ
Απόσταση από το Vouhead Weather: (ΒΔ) 369χλμ
Ενημερώθηκε: 12/07/2020 15:00
Καταιγίδα, Διάσπαρτα νέφη
Καταιγίδα, Διάσπαρτα νέφη
 Άνεμος από ΒΒΑ
Άνεμος: ΒΒΑ 26 km/h
Θερμοκρασία: 34°C
Σημ. Δρόσου: 14°C
Υγρασία: 30%
Βαρόμετρο: 1013 hPa
Περίληψη: Καταιγίδα
Σύννεφα: Διάσπαρτα νέφη
Ορατότητα: 10 km
Ανάλυση νέφωσης: Διάσπαρτα νέφη 1219 m
2020/07/12 12:00 LYPG 121200Z 03014KT 350V070 9999 TS FEW040CB 34/14 Q1013 TEMPO TSRA
 
LGSO - Αεροδρόμιο "Δημήτριος Βικέλας"
Σύρος - Νότιο Αιγαίο - Ελλάδα
Γ.Πλάτ: 37.4167 - Γ.Μήκ: 24.9500 - Υψόμ: 72μ
Απόσταση από το Vouhead Weather: (ΝΝΑ) 390χλμ
Ενημερώθηκε: 12/07/2020 15:20

 Άνεμος από Β
Άνεμος: Β 35 km/h
Θερμοκρασία: 27°C
Δείκτης Δυσφορίας: 28°C
Σημ. Δρόσου: 16°C
Υγρασία: 51%
Βαρόμετρο: 1009 hPa
2020/07/12 12:20 LGSO 121220Z AUTO 36019KT //// // ////// 27/16 Q1009 RE//
LGKL - Αεροδρόμιο στη Καλαμάτα(ΒΠΑ)
Καλαμάτα - Πελοπόννησος - Ελλάδα
Γ.Πλάτ: 37.0667 - Γ.Μήκ: 22.0167 - Υψόμ: 8μ
Απόσταση από το Vouhead Weather: (ΝΝΔ) 398χλμ
Ενημερώθηκε: 12/07/2020 15:20
Διάσπαρτα νέφη
Διάσπαρτα νέφη
 Άνεμος από ΝΝΑ
Άνεμος: ΝΝΑ 20 km/h
Θερμοκρασία: 29°C
Δείκτης Δυσφορίας: 30°C
Σημ. Δρόσου: 19°C
Υγρασία: 55%
Βαρόμετρο: 1010 hPa
Σύννεφα: Διάσπαρτα νέφη
Ορατότητα: 10 km
Ανάλυση νέφωσης: Διάσπαρτα νέφη 914 m
2020/07/12 12:20 LGKL 121220Z 16011KT 9999 FEW030 29/19 Q1010
 
LIBY - Αεροδρόμιο στη Σάντα Μαρία ντι Λέουκα
Σάντα Μαρία ντι Λέουκα - Απουλία(Λέτσε) - Ιταλία
Γ.Πλάτ: 39.8167 - Γ.Μήκ: 18.3500 - Υψόμ: 112μ
Απόσταση από το Vouhead Weather: (Δ) 402χλμ
Ενημερώθηκε: 12/07/2020 14:55
Αίθριος
Αίθριος
 Άνεμος από Β
Άνεμος: Β 15 km/h
Θερμοκρασία: 32°C
Δείκτης Δυσφορίας: 33°C
Σημ. Δρόσου: 17°C
Υγρασία: 41%
Βαρόμετρο: 1013 hPa
Περίληψη: Αίθριος
Ορατότητα: Μεγαλύτερη από 10 km
2020/07/12 11:55 LIBY 121155Z 01008KT CAVOK 32/17 Q1013 RMK SKC QUK 2 QUL 1 N VIS MAR 20 KM VIS MIN 9999
LGMK - Αεροδρόμιο στη Μύκονο
Μύκονος - Νότιο Αιγαίο - Ελλάδα
Γ.Πλάτ: 37.4333 - Γ.Μήκ: 25.3500 - Υψόμ: 123μ
Απόσταση από το Vouhead Weather: (ΝΝΑ) 404χλμ
Ενημερώθηκε: 12/07/2020 15:20
Διάσπαρτα νέφη
Διάσπαρτα νέφη
 Άνεμος από Μεταβλητός
Άνεμος: Μεταβλητός 0 km/h
Θερμοκρασία: 27°C
Δείκτης Δυσφορίας: 28°C
Σημ. Δρόσου: 16°C
Υγρασία: 51%
Βαρόμετρο: 1009 hPa
Σύννεφα: Διάσπαρτα νέφη
Ορατότητα: 10 km
Ανάλυση νέφωσης: Διάσπαρτα νέφη 305 m
2020/07/12 12:20 LGMK 121220Z /////KT 9999 FEW010 27/16 Q1009
 
LYTV - Αεροδρόμιο στο Τιβάτ
Τιβάτ - Τιβάτ - Μαυροβούνιο
Γ.Πλάτ: 42.3833 - Γ.Μήκ: 18.7167 - Υψόμ: 5μ
Απόσταση από το Vouhead Weather: (ΔΒΔ) 408χλμ
Ενημερώθηκε: 12/07/2020 15:00
Διάσπαρτα νέφη
Διάσπαρτα νέφη
 Άνεμος από Δ
Άνεμος: Δ 11 km/h
Θερμοκρασία: 31°C
Δείκτης Δυσφορίας: 33°C
Σημ. Δρόσου: 19°C
Υγρασία: 49%
Βαρόμετρο: 1013 hPa
Σύννεφα: Διάσπαρτα νέφη
Ορατότητα: 10 km
Ανάλυση νέφωσης: Διάσπαρτα νέφη 1524 m
Διάσπαρτα νέφη 1829 m
2020/07/12 12:00 LYTV 121200Z 27006KT 220V310 9999 FEW050TCU FEW060 31/19 Q1013 NOSIG
LIBN - Αεροδρόμιο στη Γκαλατίνα(ΒΠΑ)
Γκαλατίνα - Απουλία(Λέτσε) - Ιταλία
Γ.Πλάτ: 40.2167 - Γ.Μήκ: 18.1333 - Υψόμ: 61μ
Απόσταση από το Vouhead Weather: (Δ) 412χλμ
Ενημερώθηκε: 12/07/2020 14:55
Αίθριος
Αίθριος
 Άνεμος από ΒΒΔ
Άνεμος: ΒΒΔ 30 km/h, Ριπή: 48 km/h
Θερμοκρασία: 32°C
Δείκτης Δυσφορίας: 36°C
Σημ. Δρόσου: 21°C
Υγρασία: 52%
Βαρόμετρο: 1014 hPa
Περίληψη: Αίθριος
Ορατότητα: Μεγαλύτερη από 10 km
2020/07/12 11:55 LIBN 121155Z 34016G26KT CAVOK 32/21 Q1014 RMK SKC VIS MIN 9999 WIND THR14 35016KT WIND THR32 34019KT BLU
 
LYKV - Αεροδρόμιο στο Κράλιεβο & Λάντεβτσι
Κράλιεβο(Όμπρβα) - Σουμαντίγια και Δ. Σερβία - Σερβία
Γ.Πλάτ: 43.8167 - Γ.Μήκ: 20.5833 - Υψόμ: 209μ
Απόσταση από το Vouhead Weather: (ΒΒΔ) 412χλμ
Ενημερώθηκε: 12/07/2020 15:00
Κυρίως νεφελώδης
Κυρίως νεφελώδης
 Άνεμος από ΒΔ
Άνεμος: ΒΔ 9 km/h
Θερμοκρασία: 18°C
Σημ. Δρόσου: 14°C
Υγρασία: 78%
Βαρόμετρο: 1022 hPa
Σύννεφα: Κυρίως νεφελώδης
Ορατότητα: 10 km
Ανάλυση νέφωσης: Κυρίως νεφελώδης 518 m
Κυρίως νεφελώδης 701 m
Κυρίως νεφελώδης 1067 m
2020/07/12 12:00 LYKV 121200Z 32005KT 240V040 9999 BKN017 BKN023 BKN035 18/14 Q1022 NOSIG
LTBU - Αεροδρόμιο στο Τσορλού(ΒΠΑ)
Τσορλού - Μαρμαράς(Τεκιρντάγ-Ραιδεστός) - Τουρκία
Γ.Πλάτ: 41.1167 - Γ.Μήκ: 27.9167 - Υψόμ: 173μ
Απόσταση από το Vouhead Weather: (Α) 420χλμ
Ενημερώθηκε: 12/07/2020 15:20
Αίθριος
Αίθριος
 Άνεμος από ΒΑ
Άνεμος: ΒΑ 26 km/h
Θερμοκρασία: 29°C
Δείκτης Δυσφορίας: 28°C
Σημ. Δρόσου: 14°C
Υγρασία: 40%
Βαρόμετρο: 1012 hPa
Περίληψη: Αίθριος
Ορατότητα: Μεγαλύτερη από 10 km
2020/07/12 12:20 LTBU 121220Z 04014KT 010V070 CAVOK 29/14 Q1012
 
LRCV - Αεροδρόμιο στη Κραϊόβα
Κραϊόβα - Δολζ - Ρουμανία
Γ.Πλάτ: 44.3167 - Γ.Μήκ: 23.8833 - Υψόμ: 191μ
Απόσταση από το Vouhead Weather: (Β) 424χλμ
Ενημερώθηκε: 12/07/2020 15:00
Αίθριος
Αίθριος
 Άνεμος από ΔΝΔ
Άνεμος: ΔΝΔ 24 km/h
Θερμοκρασία: 29°C
Δείκτης Δυσφορίας: 29°C
Σημ. Δρόσου: 15°C
Υγρασία: 43%
Βαρόμετρο: 1014 hPa
Περίληψη: Αίθριος
Ορατότητα: Μεγαλύτερη από 10 km
2020/07/12 12:00 LRCV 121200Z 25013KT 210V280 CAVOK 29/15 Q1014
LIBR - Αεροδρόμιο στο Μπρίντιζι
(Ανεπίσημο όνομα αεροδρομίου: Ντελ Σαλέντο)
Μπρίντιζι(Πάπολα-Καζάλε) - Απουλία(Μπρίντιζι) - Ιταλία
Γ.Πλάτ: 40.6500 - Γ.Μήκ: 17.9500 - Υψόμ: 10μ
Απόσταση από το Vouhead Weather: (Δ) 424χλμ
Ενημερώθηκε: 12/07/2020 15:20
Αίθριος
Αίθριος
 Άνεμος από ΒΒΔ
Άνεμος: ΒΒΔ 31 km/h
Θερμοκρασία: 28°C
Δείκτης Δυσφορίας: 30°C
Σημ. Δρόσου: 21°C
Υγρασία: 66%
Βαρόμετρο: 1014 hPa
Περίληψη: Αίθριος
Ορατότητα: Μεγαλύτερη από 10 km
2020/07/12 12:20 LIBR 121220Z 33017KT CAVOK 28/21 Q1014
 
LBBG - Αεροδρόμιο στo Μπουργκάς
Μπουργκάς(Σαράφοβο) - Μπουργκάς - Βουλγαρία
Γ.Πλάτ: 42.5000 - Γ.Μήκ: 27.4833 - Υψόμ: 28μ
Απόσταση από το Vouhead Weather: (ΑΒΑ) 432χλμ
Ενημερώθηκε: 12/07/2020 15:00
Διάσπαρτα νέφη
Διάσπαρτα νέφη
 Άνεμος από ΝΑ
Άνεμος: ΝΑ 20 km/h
Θερμοκρασία: 30°C
Δείκτης Δυσφορίας: 30°C
Σημ. Δρόσου: 16°C
Υγρασία: 43%
Βαρόμετρο: 1012 hPa
Σύννεφα: Διάσπαρτα νέφη
Ορατότητα: 10 km
Ανάλυση νέφωσης: Διάσπαρτα νέφη 1372 m
2020/07/12 12:00 LBBG 121200Z 13011KT 9999 FEW045 30/16 Q1012 NOSIG
LGPA - Αεροδρόμιο "Παντελαίειο"
Πάρος - Νότιο Αιγαίο - Ελλάδα
Γ.Πλάτ: 37.0000 - Γ.Μήκ: 25.0667 - Υψόμ: 36μ
Απόσταση από το Vouhead Weather: (ΝΝΑ) 436χλμ
Ενημερώθηκε: 12/07/2020 14:50
Διάσπαρτα νέφη
Διάσπαρτα νέφη
 Άνεμος από ΒΒΔ
Άνεμος: ΒΒΔ 39 km/h
Θερμοκρασία: 26°C
Σημ. Δρόσου: 19°C
Υγρασία: 65%
Βαρόμετρο: 1009 hPa
Σύννεφα: Διάσπαρτα νέφη
Ορατότητα: 10 km
Ανάλυση νέφωσης: Διάσπαρτα νέφη 610 m
2020/07/12 11:50 LGPA 121150Z 34021KT 9999 FEW020 26/19 Q1009
 
LGNX - Αεροδρόμιο στη Νάξο
Νάξος - Νότιο Αιγαίο - Ελλάδα
Γ.Πλάτ: 37.0833 - Γ.Μήκ: 25.3667 - Υψόμ: 4μ
Απόσταση από το Vouhead Weather: (ΝΝΑ) 439χλμ
Ενημερώθηκε: 12/07/2020 14:50
Διάσπαρτα νέφη
Διάσπαρτα νέφη
 Άνεμος από Β
Άνεμος: Β 19 km/h, Ριπή: 37 km/h
Θερμοκρασία: 27°C
Δείκτης Δυσφορίας: 28°C
Σημ. Δρόσου: 19°C
Υγρασία: 62%
Βαρόμετρο: 1010 hPa
Σύννεφα: Διάσπαρτα νέφη
Ορατότητα: 10 km
Ανάλυση νέφωσης: Διάσπαρτα νέφη 610 m
2020/07/12 11:50 LGNX 121150Z 36010G20KT 9999 FEW020 27/19 Q1010
LTBJ - Αεροδρόμιο "Αντνάν Μεντερές"
Σμύρνη - Αιγαίο(Σμύρνη) - Τουρκία
Γ.Πλάτ: 38.2667 - Γ.Μήκ: 27.1333 - Υψόμ: 120μ
Απόσταση από το Vouhead Weather: (ΝΑ) 439χλμ
Ενημερώθηκε: 12/07/2020 15:20
Αίθριος
Αίθριος
 Άνεμος από ΒΒΔ
Άνεμος: ΒΒΔ 35 km/h
Θερμοκρασία: 33°C
Δείκτης Δυσφορίας: 34°C
Σημ. Δρόσου: 18°C
Υγρασία: 41%
Βαρόμετρο: 1006 hPa
Περίληψη: Αίθριος
Ορατότητα: Μεγαλύτερη από 10 km
2020/07/12 12:20 LTBJ 121220Z 34019KT CAVOK 33/18 Q1006 NOSIG
 
LDDU - Αεροδρόμιο στο Ντουμπρόβνικ
Ντουμπρόβνικ - Ντουμπρόβνικ Νερέτβα - Κροατία
Γ.Πλάτ: 42.5667 - Γ.Μήκ: 18.2667 - Υψόμ: 165μ
Απόσταση από το Vouhead Weather: (ΔΒΔ) 450χλμ
Ενημερώθηκε: 12/07/2020 15:00
Διάσπαρτα νέφη
Διάσπαρτα νέφη
 Άνεμος από Δ
Άνεμος: Δ 15 km/h
Θερμοκρασία: 30°C
Δείκτης Δυσφορίας: 30°C
Σημ. Δρόσου: 16°C
Υγρασία: 43%
Βαρόμετρο: 1014 hPa
Σύννεφα: Διάσπαρτα νέφη
Ορατότητα: 10 km
Ανάλυση νέφωσης: Διάσπαρτα νέφη 1067 m
2020/07/12 12:00 LDDU 121200Z 28008KT 230V320 9999 FEW035 30/16 Q1014 NOSIG
LYUZ - Αεροδρόμιο στην Ούζιτσε & Πόνικβε
(Ανεπίσημο όνομα αεροδρομίου: Λέπα Γκλάβα)
Ούζιτσε - Σουμαντίγια και Δ. Σερβία - Σερβία
Γ.Πλάτ: 43.9000 - Γ.Μήκ: 19.7000 - Υψόμ: 904μ
Απόσταση από το Vouhead Weather: (ΒΔ) 458χλμ
Ενημερώθηκε: 12/07/2020 15:00
Ασθενές ψιλόβροχο, Ομίχλη, Νεφοσκεπής
Ασθενές ψιλόβροχο, Ομίχλη, Νεφοσκεπής
 Άνεμος από ΔΒΔ
Άνεμος: ΔΒΔ 13 km/h
Θερμοκρασία: 12°C
Σημ. Δρόσου: 12°C
Υγρασία: 100%
Βαρόμετρο: 1024 hPa
Περίληψη: Ασθενές ψιλόβροχο, Ομίχλη
Σύννεφα: Νεφοσκεπής
Ορατότητα: 1 km
Ανάλυση νέφωσης: Νεφοσκεπής 30 m
2020/07/12 12:00 LYUZ 121200Z 30007KT 270V360 0500 -DZ FG VV001 12/12 Q1024
 
LGSM - Αεροδρόμιο "Αρίσταρχος ο Σάμιος"
Σάμος - Βόρειο Αιγαίο - Ελλάδα
Γ.Πλάτ: 37.6833 - Γ.Μήκ: 26.9167 - Υψόμ: 6μ
Απόσταση από το Vouhead Weather: (ΝΑ) 467χλμ
Ενημερώθηκε: 12/07/2020 14:50
Αίθριος
Αίθριος
 Άνεμος από Β
Άνεμος: Β 24 km/h
Θερμοκρασία: 32°C
Σημ. Δρόσου: 16°C
Υγρασία: 38%
Βαρόμετρο: 1005 hPa
Περίληψη: Αίθριος
Ορατότητα: Μεγαλύτερη από 10 km
2020/07/12 11:50 LGSM 121150Z 36013KT 330V030 CAVOK 32/16 Q1005
LIBG - Αεροδρόμιο "Μαρτσέλο Αρλόττα"
Μουντιάζι(Ταράντο-Γκροτάλιε)-Απουλία(Ταράντο)-Ιταλία
Γ.Πλάτ: 40.5167 - Γ.Μήκ: 17.3833 - Υψόμ: 69μ
Απόσταση από το Vouhead Weather: (Δ) 472χλμ
Ενημερώθηκε: 12/07/2020 14:50
Αίθριος
Αίθριος
 Άνεμος από Β
Άνεμος: Β 28 km/h
Θερμοκρασία: 34°C
Σημ. Δρόσου: 16°C
Υγρασία: 34%
Βαρόμετρο: 1014 hPa
Περίληψη: Αίθριος
Ορατότητα: Μεγαλύτερη από 10 km
2020/07/12 11:50 LIBG 121150Z 35015KT CAVOK 34/16 Q1014
 
LGKC - Αεροδρόμιο στα Κύθηρα
Κύθηρα(Επτάνησα) - Αττική(Νήσοι) - Ελλάδα
Γ.Πλάτ: 36.2833 - Γ.Μήκ: 23.0167 - Υψόμ: 319μ
Απόσταση από το Vouhead Weather: (Ν) 476χλμ
Ενημερώθηκε: 12/07/2020 14:50
Διάσπαρτα νέφη
Διάσπαρτα νέφη
 Άνεμος από ΑΒΑ
Άνεμος: ΑΒΑ 11 km/h
Θερμοκρασία: 30°C
Δείκτης Δυσφορίας: 33°C
Σημ. Δρόσου: 21°C
Υγρασία: 59%
Βαρόμετρο: 1013 hPa
Σύννεφα: Διάσπαρτα νέφη
Ορατότητα: 10 km
Ανάλυση νέφωσης: Διάσπαρτα νέφη 366 m
2020/07/12 11:50 LGKC 121150Z 07006KT 9999 FEW012 30/21 Q1013
LTBA - Αεροδρόμιο "Ατατούρκ"
Κωνσταντινούπολη - Μαρμαράς(Κων/πολη) - Τουρκία
Γ.Πλάτ: 40.9667 - Γ.Μήκ: 28.8167 - Υψόμ: 37μ
Απόσταση από το Vouhead Weather: (Α) 494χλμ
Ενημερώθηκε: 12/07/2020 15:20
Διάσπαρτα νέφη
Διάσπαρτα νέφη
 Άνεμος από Β
Άνεμος: Β 28 km/h
Θερμοκρασία: 30°C
Δείκτης Δυσφορίας: 30°C
Σημ. Δρόσου: 16°C
Υγρασία: 43%
Βαρόμετρο: 1011 hPa
Σύννεφα: Διάσπαρτα νέφη
Ορατότητα: 10 km
Ανάλυση νέφωσης: Διάσπαρτα νέφη 1067 m
2020/07/12 12:20 LTBA 121220Z 01015KT 9999 FEW035 30/16 Q1011 NOSIG
   Μην χρησιμοποιήσετε τα στοιχεία για αποφάσεις που αφορούν ζωές και πάσης φύσεως ιδιοκτησίες  
ΠΗΓΑΙΝΕΤΕ ΣΤΗΝ ΙΟΝΙΑ ΠΗΓΑΙΝΕΤΕ ΣΤΗΝ ΡΕΑ ΠΗΓΑΙΝΕΤΕ ΣΤΗΝ ΚΗΦΙΣΙΑ ΠΗΓΑΙΝΕΤΕ ΣΤΗΝ ΣΥΡΟ ΠΗΓΑΙΝΕΤΕ ΣΤΗΝ ΔΕΞΑΜΕΝΗ (BOLTEK) ΠΗΓΑΙΝΕΤΕ ΣΤΗΝ ΔΕΞΑΜΕΝΗ (LR) Γενική Γραμματεία Πολιτικής Προστασίας Ενιαίος Ευρωπαϊκός Αριθμός Έκτακτης Ανάγκης Βίντεο για το Καστελλόριζο(Μεγίστη) από τα αρχεία της ΕΡΤ Ιστοσελίδα Δήμου Μεγίστης Δείτε το μεγαλύτερο